sensor_id;sensor_type;location;lat;lon;timestamp;temperature;humidity
77839;SHT31;67034;43.226;27.932;2023-10-13T00:00:26;13.37;76.67
77839;SHT31;67034;43.226;27.932;2023-10-13T00:02:51;13.55;76.29
77839;SHT31;67034;43.226;27.932;2023-10-13T00:05:20;13.50;75.59
77839;SHT31;67034;43.226;27.932;2023-10-13T00:07:45;13.31;75.90
77839;SHT31;67034;43.226;27.932;2023-10-13T00:10:12;13.26;76.10
77839;SHT31;67034;43.226;27.932;2023-10-13T00:12:38;13.27;76.19
77839;SHT31;67034;43.226;27.932;2023-10-13T00:15:05;13.33;76.19
77839;SHT31;67034;43.226;27.932;2023-10-13T00:17:39;13.46;76.02
77839;SHT31;67034;43.226;27.932;2023-10-13T00:20:05;13.54;75.46
77839;SHT31;67034;43.226;27.932;2023-10-13T00:22:37;13.27;75.59
77839;SHT31;67034;43.226;27.932;2023-10-13T00:25:06;13.13;76.08
77839;SHT31;67034;43.226;27.932;2023-10-13T00:27:37;12.97;76.56
77839;SHT31;67034;43.226;27.932;2023-10-13T00:30:08;13.07;76.72
77839;SHT31;67034;43.226;27.932;2023-10-13T00:32:59;13.30;76.35
77839;SHT31;67034;43.226;27.932;2023-10-13T00:35:25;13.41;75.64
77839;SHT31;67034;43.226;27.932;2023-10-13T00:37:54;13.23;75.75
77839;SHT31;67034;43.226;27.932;2023-10-13T00:40:21;13.13;75.91
77839;SHT31;67034;43.226;27.932;2023-10-13T00:42:56;13.00;76.13
77839;SHT31;67034;43.226;27.932;2023-10-13T00:45:43;13.06;76.62
77839;SHT31;67034;43.226;27.932;2023-10-13T00:48:10;13.28;76.12
77839;SHT31;67034;43.226;27.932;2023-10-13T00:50:40;13.48;75.54
77839;SHT31;67034;43.226;27.932;2023-10-13T00:53:06;13.30;75.42
77839;SHT31;67034;43.226;27.932;2023-10-13T00:55:33;13.13;75.89
77839;SHT31;67034;43.226;27.932;2023-10-13T00:58:00;12.97;76.24
77839;SHT31;67034;43.226;27.932;2023-10-13T01:00:29;12.92;76.47
77839;SHT31;67034;43.226;27.932;2023-10-13T01:02:56;13.06;76.46
77839;SHT31;67034;43.226;27.932;2023-10-13T01:05:22;13.28;76.15
77839;SHT31;67034;43.226;27.932;2023-10-13T01:07:49;13.24;75.51
77839;SHT31;67034;43.226;27.932;2023-10-13T01:10:18;12.91;76.05
77839;SHT31;67034;43.226;27.932;2023-10-13T01:12:45;12.83;76.49
77839;SHT31;67034;43.226;27.932;2023-10-13T01:15:11;12.79;76.57
77839;SHT31;67034;43.226;27.932;2023-10-13T01:17:39;12.81;76.75
77839;SHT31;67034;43.226;27.932;2023-10-13T01:20:07;12.95;76.48
77839;SHT31;67034;43.226;27.932;2023-10-13T01:22:33;13.16;76.10
77839;SHT31;67034;43.226;27.932;2023-10-13T01:25:00;13.07;75.54
77839;SHT31;67034;43.226;27.932;2023-10-13T01:27:39;12.81;76.27
77839;SHT31;67034;43.226;27.932;2023-10-13T01:30:06;12.72;76.41
77839;SHT31;67034;43.226;27.932;2023-10-13T01:32:36;12.51;76.82
77839;SHT31;67034;43.226;27.932;2023-10-13T01:35:10;12.61;77.06
77839;SHT31;67034;43.226;27.932;2023-10-13T01:37:36;12.78;76.66
77839;SHT31;67034;43.226;27.932;2023-10-13T01:40:04;12.86;76.02
77839;SHT31;67034;43.226;27.932;2023-10-13T01:42:30;12.71;75.98
77839;SHT31;67034;43.226;27.932;2023-10-13T01:44:56;12.51;76.53
77839;SHT31;67034;43.226;27.932;2023-10-13T01:47:30;12.46;76.92
77839;SHT31;67034;43.226;27.932;2023-10-13T01:49:56;12.48;77.02
77839;SHT31;67034;43.226;27.932;2023-10-13T01:52:23;12.66;76.85
77839;SHT31;67034;43.226;27.932;2023-10-13T01:54:50;12.86;76.49
77839;SHT31;67034;43.226;27.932;2023-10-13T01:57:17;13.14;75.96
77839;SHT31;67034;43.226;27.932;2023-10-13T01:59:43;13.02;75.61
77839;SHT31;67034;43.226;27.932;2023-10-13T02:02:09;12.86;75.92
77839;SHT31;67034;43.226;27.932;2023-10-13T02:04:38;12.79;76.33
77839;SHT31;67034;43.226;27.932;2023-10-13T02:07:07;12.79;76.51
77839;SHT31;67034;43.226;27.932;2023-10-13T02:09:33;12.99;76.29
77839;SHT31;67034;43.226;27.932;2023-10-13T02:12:02;13.23;75.73
77839;SHT31;67034;43.226;27.932;2023-10-13T02:14:29;13.37;75.06
77839;SHT31;67034;43.226;27.932;2023-10-13T02:16:58;13.13;74.93
77839;SHT31;67034;43.226;27.932;2023-10-13T02:19:41;12.76;75.74
77839;SHT31;67034;43.226;27.932;2023-10-13T02:22:11;12.69;76.40
77839;SHT31;67034;43.226;27.932;2023-10-13T02:24:37;12.78;76.61
77839;SHT31;67034;43.226;27.932;2023-10-13T02:27:05;12.99;76.36
77839;SHT31;67034;43.226;27.932;2023-10-13T02:29:40;13.23;75.71
77839;SHT31;67034;43.226;27.932;2023-10-13T02:32:06;13.31;74.98
77839;SHT31;67034;43.226;27.932;2023-10-13T02:34:38;13.07;75.25
77839;SHT31;67034;43.226;27.932;2023-10-13T02:37:09;12.91;75.65
77839;SHT31;67034;43.226;27.932;2023-10-13T02:39:35;12.76;76.05
77839;SHT31;67034;43.226;27.932;2023-10-13T02:42:01;12.81;76.40
77839;SHT31;67034;43.226;27.932;2023-10-13T02:44:32;13.00;76.20
77839;SHT31;67034;43.226;27.932;2023-10-13T02:47:03;13.27;75.62
77839;SHT31;67034;43.226;27.932;2023-10-13T02:49:39;13.33;74.80
77839;SHT31;67034;43.226;27.932;2023-10-13T02:52:08;13.07;75.06
77839;SHT31;67034;43.226;27.932;2023-10-13T02:54:34;12.93;75.48
77839;SHT31;67034;43.226;27.932;2023-10-13T02:57:05;12.81;75.89
77839;SHT31;67034;43.226;27.932;2023-10-13T02:59:32;12.89;76.15
77839;SHT31;67034;43.226;27.932;2023-10-13T03:02:13;13.06;75.70
77839;SHT31;67034;43.226;27.932;2023-10-13T03:04:55;13.13;75.35
77839;SHT31;67034;43.226;27.932;2023-10-13T03:07:39;13.04;74.91
77839;SHT31;67034;43.226;27.932;2023-10-13T03:10:09;12.82;75.33
77839;SHT31;67034;43.226;27.932;2023-10-13T03:12:36;12.73;75.83
77839;SHT31;67034;43.226;27.932;2023-10-13T03:15:03;12.61;75.96
77839;SHT31;67034;43.226;27.932;2023-10-13T03:17:39;12.69;76.19
77839;SHT31;67034;43.226;27.932;2023-10-13T03:20:09;12.89;75.81
77839;SHT31;67034;43.226;27.932;2023-10-13T03:22:38;13.14;75.12
77839;SHT31;67034;43.226;27.932;2023-10-13T03:25:04;13.02;74.31
77839;SHT31;67034;43.226;27.932;2023-10-13T03:27:33;12.69;75.01
77839;SHT31;67034;43.226;27.932;2023-10-13T03:30:08;12.54;75.59
77839;SHT31;67034;43.226;27.932;2023-10-13T03:32:42;12.38;76.08
77839;SHT31;67034;43.226;27.932;2023-10-13T03:35:20;12.45;76.27
77839;SHT31;67034;43.226;27.932;2023-10-13T03:38:05;12.58;75.90
77839;SHT31;67034;43.226;27.932;2023-10-13T03:40:44;12.71;75.62
77839;SHT31;67034;43.226;27.932;2023-10-13T03:43:22;12.65;75.15
77839;SHT31;67034;43.226;27.932;2023-10-13T03:45:49;12.44;75.54
77839;SHT31;67034;43.226;27.932;2023-10-13T03:48:27;12.27;76.03
77839;SHT31;67034;43.226;27.932;2023-10-13T03:50:53;12.23;76.39
77839;SHT31;67034;43.226;27.932;2023-10-13T03:53:29;12.42;76.32
77839;SHT31;67034;43.226;27.932;2023-10-13T03:55:59;12.66;75.57
77839;SHT31;67034;43.226;27.932;2023-10-13T03:58:33;12.86;74.79
77839;SHT31;67034;43.226;27.932;2023-10-13T04:01:00;12.72;74.11
77839;SHT31;67034;43.226;27.932;2023-10-13T04:03:27;12.46;74.76
77839;SHT31;67034;43.226;27.932;2023-10-13T04:06:08;12.31;75.33
77839;SHT31;67034;43.226;27.932;2023-10-13T04:08:41;12.28;75.42
77839;SHT31;67034;43.226;27.932;2023-10-13T04:11:13;12.54;75.21
77839;SHT31;67034;43.226;27.932;2023-10-13T04:13:57;12.89;74.40
77839;SHT31;67034;43.226;27.932;2023-10-13T04:16:42;13.16;73.33
77839;SHT31;67034;43.226;27.932;2023-10-13T04:19:20;12.99;72.88
77839;SHT31;67034;43.226;27.932;2023-10-13T04:21:50;12.68;73.48
77839;SHT31;67034;43.226;27.932;2023-10-13T04:24:26;12.46;74.04
77839;SHT31;67034;43.226;27.932;2023-10-13T04:27:20;12.56;74.05
77839;SHT31;67034;43.226;27.932;2023-10-13T04:30:07;12.92;73.68
77839;SHT31;67034;43.226;27.932;2023-10-13T04:32:33;13.22;72.74
77839;SHT31;67034;43.226;27.932;2023-10-13T04:35:06;13.44;71.98
77839;SHT31;67034;43.226;27.932;2023-10-13T04:37:40;13.37;71.49
77839;SHT31;67034;43.226;27.932;2023-10-13T04:40:27;13.14;71.60
77839;SHT31;67034;43.226;27.932;2023-10-13T04:43:00;12.92;72.02
77839;SHT31;67034;43.226;27.932;2023-10-13T04:45:31;12.72;72.81
77839;SHT31;67034;43.226;27.932;2023-10-13T04:47:57;12.92;72.75
77839;SHT31;67034;43.226;27.932;2023-10-13T04:50:25;13.09;72.21
77839;SHT31;67034;43.226;27.932;2023-10-13T04:53:00;13.36;71.60
77839;SHT31;67034;43.226;27.932;2023-10-13T04:55:38;13.41;71.10
77839;SHT31;67034;43.226;27.932;2023-10-13T04:58:25;13.14;71.59
77839;SHT31;67034;43.226;27.932;2023-10-13T05:01:14;13.06;71.91
77839;SHT31;67034;43.226;27.932;2023-10-13T05:04:08;12.96;72.60
77839;SHT31;67034;43.226;27.932;2023-10-13T05:06:41;13.28;72.49
77839;SHT31;67034;43.226;27.932;2023-10-13T05:09:07;13.64;71.76
77839;SHT31;67034;43.226;27.932;2023-10-13T05:11:51;13.99;70.84
77839;SHT31;67034;43.226;27.932;2023-10-13T05:14:35;13.67;70.93
77839;SHT31;67034;43.226;27.932;2023-10-13T05:17:20;13.70;71.49
77839;SHT31;67034;43.226;27.932;2023-10-13T05:20:05;13.89;71.38
77839;SHT31;67034;43.226;27.932;2023-10-13T05:23:05;14.26;70.96
77839;SHT31;67034;43.226;27.932;2023-10-13T05:25:49;14.63;70.09
77839;SHT31;67034;43.226;27.932;2023-10-13T05:28:33;14.98;69.45
77839;SHT31;67034;43.226;27.932;2023-10-13T05:31:17;14.98;68.94
77839;SHT31;67034;43.226;27.932;2023-10-13T05:34:02;15.11;69.08
77839;SHT31;67034;43.226;27.932;2023-10-13T05:36:46;15.31;68.61
77839;SHT31;67034;43.226;27.932;2023-10-13T05:39:32;15.52;68.08
77839;SHT31;67034;43.226;27.932;2023-10-13T05:42:16;15.89;67.21
77839;SHT31;67034;43.226;27.932;2023-10-13T05:45:00;16.31;66.27
77839;SHT31;67034;43.226;27.932;2023-10-13T05:47:42;16.47;65.12
77839;SHT31;67034;43.226;27.932;2023-10-13T05:50:09;16.15;65.91
77839;SHT31;67034;43.226;27.932;2023-10-13T05:52:47;16.03;66.16
77839;SHT31;67034;43.226;27.932;2023-10-13T05:55:24;15.94;66.10
77839;SHT31;67034;43.226;27.932;2023-10-13T05:58:09;16.03;66.08
77839;SHT31;67034;43.226;27.932;2023-10-13T06:00:53;16.26;65.77
77839;SHT31;67034;43.226;27.932;2023-10-13T06:03:38;16.41;64.87
77839;SHT31;67034;43.226;27.932;2023-10-13T06:06:22;16.26;65.44
77839;SHT31;67034;43.226;27.932;2023-10-13T06:09:06;16.38;65.46
77839;SHT31;67034;43.226;27.932;2023-10-13T06:11:52;16.56;65.37
77839;SHT31;67034;43.226;27.932;2023-10-13T06:14:36;16.83;64.60
77839;SHT31;67034;43.226;27.932;2023-10-13T06:17:21;17.00;63.79
77839;SHT31;67034;43.226;27.932;2023-10-13T06:20:06;16.87;63.48
77839;SHT31;67034;43.226;27.932;2023-10-13T06:22:51;16.79;63.91
77839;SHT31;67034;43.226;27.932;2023-10-13T06:25:36;16.89;63.73
77839;SHT31;67034;43.226;27.932;2023-10-13T06:28:21;16.99;63.47
77839;SHT31;67034;43.226;27.932;2023-10-13T06:31:07;17.21;62.87
77839;SHT31;67034;43.226;27.932;2023-10-13T06:33:33;17.51;62.63
77839;SHT31;67034;43.226;27.932;2023-10-13T06:36:01;17.74;62.10
77839;SHT31;67034;43.226;27.932;2023-10-13T06:38:27;17.83;61.54
77839;SHT31;67034;43.226;27.932;2023-10-13T06:41:01;17.90;61.47
77839;SHT31;67034;43.226;27.932;2023-10-13T06:43:32;18.08;61.35
77839;SHT31;67034;43.226;27.932;2023-10-13T06:45:58;18.26;61.00
77839;SHT31;67034;43.226;27.932;2023-10-13T06:48:29;18.26;60.44
77839;SHT31;67034;43.226;27.932;2023-10-13T06:50:59;18.33;60.20
77839;SHT31;67034;43.226;27.932;2023-10-13T06:53:31;18.40;59.87
77839;SHT31;67034;43.226;27.932;2023-10-13T06:56:06;18.61;59.62
77839;SHT31;67034;43.226;27.932;2023-10-13T06:58:33;18.58;59.08
77839;SHT31;67034;43.226;27.932;2023-10-13T07:00:59;18.58;58.94
77839;SHT31;67034;43.226;27.932;2023-10-13T07:03:24;18.60;58.82
77839;SHT31;67034;43.226;27.932;2023-10-13T07:05:51;18.69;58.87
77839;SHT31;67034;43.226;27.932;2023-10-13T07:08:17;18.92;58.34
77839;SHT31;67034;43.226;27.932;2023-10-13T07:10:50;19.04;57.73
77839;SHT31;67034;43.226;27.932;2023-10-13T07:13:30;19.05;57.25
77839;SHT31;67034;43.226;27.932;2023-10-13T07:16:00;19.05;56.97
77839;SHT31;67034;43.226;27.932;2023-10-13T07:18:31;19.04;56.57
77839;SHT31;67034;43.226;27.932;2023-10-13T07:21:08;19.23;56.53
77839;SHT31;67034;43.226;27.932;2023-10-13T07:23:37;19.39;55.92
77839;SHT31;67034;43.226;27.932;2023-10-13T07:26:04;19.55;55.58
77839;SHT31;67034;43.226;27.932;2023-10-13T07:28:32;19.70;55.14
77839;SHT31;67034;43.226;27.932;2023-10-13T07:31:03;19.70;54.06
77839;SHT31;67034;43.226;27.932;2023-10-13T07:33:28;19.76;54.32
77839;SHT31;67034;43.226;27.932;2023-10-13T07:36:00;19.88;54.31
77839;SHT31;67034;43.226;27.932;2023-10-13T07:38:26;20.08;54.21
77839;SHT31;67034;43.226;27.932;2023-10-13T07:40:56;20.20;53.88
77839;SHT31;67034;43.226;27.932;2023-10-13T07:43:25;20.38;53.60
77839;SHT31;67034;43.226;27.932;2023-10-13T07:45:53;20.53;53.37
77839;SHT31;67034;43.226;27.932;2023-10-13T07:48:25;20.65;52.42
77839;SHT31;67034;43.226;27.932;2023-10-13T07:50:58;20.83;52.40
77839;SHT31;67034;43.226;27.932;2023-10-13T07:53:28;21.08;52.14
77839;SHT31;67034;43.226;27.932;2023-10-13T07:55:59;21.24;51.20
77839;SHT31;67034;43.226;27.932;2023-10-13T07:58:30;21.26;51.43
77839;SHT31;67034;43.226;27.932;2023-10-13T08:00:59;21.47;51.17
77839;SHT31;67034;43.226;27.932;2023-10-13T08:03:44;21.59;50.37
77839;SHT31;67034;43.226;27.932;2023-10-13T08:06:10;21.74;49.83
77839;SHT31;67034;43.226;27.932;2023-10-13T08:08:37;21.85;49.63
77839;SHT31;67034;43.226;27.932;2023-10-13T08:11:06;21.89;49.48
77839;SHT31;67034;43.226;27.932;2023-10-13T08:13:52;22.03;49.50
77839;SHT31;67034;43.226;27.932;2023-10-13T08:16:25;22.27;49.33
77839;SHT31;67034;43.226;27.932;2023-10-13T08:19:12;22.37;48.91
77839;SHT31;67034;43.226;27.932;2023-10-13T08:21:40;22.36;48.91
77839;SHT31;67034;43.226;27.932;2023-10-13T08:24:14;22.33;48.90
77839;SHT31;67034;43.226;27.932;2023-10-13T08:26:43;22.13;49.06
77839;SHT31;67034;43.226;27.932;2023-10-13T08:29:28;22.20;49.03
77839;SHT31;67034;43.226;27.932;2023-10-13T08:31:54;22.37;48.77
77839;SHT31;67034;43.226;27.932;2023-10-13T08:34:31;22.67;48.19
77839;SHT31;67034;43.226;27.932;2023-10-13T08:37:04;22.92;47.83
77839;SHT31;67034;43.226;27.932;2023-10-13T08:39:44;23.32;46.87
77839;SHT31;67034;43.226;27.932;2023-10-13T08:42:30;23.57;45.93
77839;SHT31;67034;43.226;27.932;2023-10-13T08:45:07;23.59;43.35
77839;SHT31;67034;43.226;27.932;2023-10-13T08:47:46;23.71;43.13
77839;SHT31;67034;43.226;27.932;2023-10-13T08:50:21;23.74;41.90
77839;SHT31;67034;43.226;27.932;2023-10-13T08:53:06;23.83;41.91
77839;SHT31;67034;43.226;27.932;2023-10-13T08:55:53;23.98;41.38
77839;SHT31;67034;43.226;27.932;2023-10-13T08:58:31;23.75;41.78
77839;SHT31;67034;43.226;27.932;2023-10-13T09:01:15;23.77;42.12
77839;SHT31;67034;43.226;27.932;2023-10-13T09:04:00;24.04;41.77
77839;SHT31;67034;43.226;27.932;2023-10-13T09:06:48;24.05;40.48
77839;SHT31;67034;43.226;27.932;2023-10-13T09:09:34;23.96;40.21
77839;SHT31;67034;43.226;27.932;2023-10-13T09:12:11;23.87;40.57
77839;SHT31;67034;43.226;27.932;2023-10-13T09:14:38;23.88;40.38
77839;SHT31;67034;43.226;27.932;2023-10-13T09:17:08;23.98;40.66
77839;SHT31;67034;43.226;27.932;2023-10-13T09:19:45;24.14;42.39
77839;SHT31;67034;43.226;27.932;2023-10-13T09:22:24;24.08;43.65
77839;SHT31;67034;43.226;27.932;2023-10-13T09:24:57;24.14;44.23
77839;SHT31;67034;43.226;27.932;2023-10-13T09:27:27;24.38;44.02
77839;SHT31;67034;43.226;27.932;2023-10-13T09:29:57;24.33;44.70
77839;SHT31;67034;43.226;27.932;2023-10-13T09:32:23;24.24;44.74
77839;SHT31;67034;43.226;27.932;2023-10-13T09:34:49;24.43;44.52
77839;SHT31;67034;43.226;27.932;2023-10-13T09:37:16;24.69;43.96
77839;SHT31;67034;43.226;27.932;2023-10-13T09:39:50;24.56;44.93
77839;SHT31;67034;43.226;27.932;2023-10-13T09:42:20;24.55;44.68
77839;SHT31;67034;43.226;27.932;2023-10-13T09:44:49;24.73;45.09
77839;SHT31;67034;43.226;27.932;2023-10-13T09:47:22;25.07;44.49
77839;SHT31;67034;43.226;27.932;2023-10-13T09:49:59;25.27;43.37
77839;SHT31;67034;43.226;27.932;2023-10-13T09:52:31;25.42;42.75
77839;SHT31;67034;43.226;27.932;2023-10-13T09:55:12;25.62;41.67
77839;SHT31;67034;43.226;27.932;2023-10-13T09:57:43;25.59;42.44
77839;SHT31;67034;43.226;27.932;2023-10-13T10:00:13;25.81;42.76
77839;SHT31;67034;43.226;27.932;2023-10-13T10:02:55;25.57;42.36
77839;SHT31;67034;43.226;27.932;2023-10-13T10:05:24;25.52;42.20
77839;SHT31;67034;43.226;27.932;2023-10-13T10:07:55;25.54;43.58
77839;SHT31;67034;43.226;27.932;2023-10-13T10:10:27;25.38;43.32
77839;SHT31;67034;43.226;27.932;2023-10-13T10:13:10;24.97;44.96
77839;SHT31;67034;43.226;27.932;2023-10-13T10:15:43;24.63;45.61
77839;SHT31;67034;43.226;27.932;2023-10-13T10:18:17;24.51;45.90
77839;SHT31;67034;43.226;27.932;2023-10-13T10:20:44;24.41;47.15
77839;SHT31;67034;43.226;27.932;2023-10-13T10:23:24;23.91;48.55
77839;SHT31;67034;43.226;27.932;2023-10-13T10:25:51;23.62;49.31
77839;SHT31;67034;43.226;27.932;2023-10-13T10:28:17;23.47;49.29
77839;SHT31;67034;43.226;27.932;2023-10-13T10:30:44;23.67;49.18
77839;SHT31;67034;43.226;27.932;2023-10-13T10:33:11;23.98;48.84
77839;SHT31;67034;43.226;27.932;2023-10-13T10:35:46;24.47;48.10
77839;SHT31;67034;43.226;27.932;2023-10-13T10:38:13;24.79;46.54
77839;SHT31;67034;43.226;27.932;2023-10-13T10:40:57;25.23;45.85
77839;SHT31;67034;43.226;27.932;2023-10-13T10:43:27;25.62;45.20
77839;SHT31;67034;43.226;27.932;2023-10-13T10:45:54;25.90;44.16
77839;SHT31;67034;43.226;27.932;2023-10-13T10:48:26;26.19;43.67
77839;SHT31;67034;43.226;27.932;2023-10-13T10:50:58;26.20;43.10
77839;SHT31;67034;43.226;27.932;2023-10-13T10:53:31;26.37;42.45
77839;SHT31;67034;43.226;27.932;2023-10-13T10:56:07;26.70;41.82
77839;SHT31;67034;43.226;27.932;2023-10-13T10:58:45;27.16;40.83
77839;SHT31;67034;43.226;27.932;2023-10-13T11:01:11;27.50;40.16
77839;SHT31;67034;43.226;27.932;2023-10-13T11:03:53;27.28;39.19
77839;SHT31;67034;43.226;27.932;2023-10-13T11:06:20;27.11;39.74
77839;SHT31;67034;43.226;27.932;2023-10-13T11:08:49;27.04;39.47
77839;SHT31;67034;43.226;27.932;2023-10-13T11:11:30;26.92;39.85
77839;SHT31;67034;43.226;27.932;2023-10-13T11:14:01;27.16;40.01
77839;SHT31;67034;43.226;27.932;2023-10-13T11:16:49;27.38;39.40
77839;SHT31;67034;43.226;27.932;2023-10-13T11:19:17;27.47;39.51
77839;SHT31;67034;43.226;27.932;2023-10-13T11:21:42;27.05;40.50
77839;SHT31;67034;43.226;27.932;2023-10-13T11:24:08;26.68;40.82
77839;SHT31;67034;43.226;27.932;2023-10-13T11:26:35;26.19;41.31
77839;SHT31;67034;43.226;27.932;2023-10-13T11:29:31;25.97;41.65
77839;SHT31;67034;43.226;27.932;2023-10-13T11:31:59;25.71;42.12
77839;SHT31;67034;43.226;27.932;2023-10-13T11:34:25;25.34;42.22
77839;SHT31;67034;43.226;27.932;2023-10-13T11:36:55;25.44;42.35
77839;SHT31;67034;43.226;27.932;2023-10-13T11:39:21;25.44;41.32
77839;SHT31;67034;43.226;27.932;2023-10-13T11:41:57;25.39;42.26
77839;SHT31;67034;43.226;27.932;2023-10-13T11:44:23;25.47;41.96
77839;SHT31;67034;43.226;27.932;2023-10-13T11:46:49;25.55;41.67
77839;SHT31;67034;43.226;27.932;2023-10-13T11:49:21;25.76;41.98
77839;SHT31;67034;43.226;27.932;2023-10-13T11:51:53;26.03;42.36
77839;SHT31;67034;43.226;27.932;2023-10-13T11:54:34;26.29;42.26
77839;SHT31;67034;43.226;27.932;2023-10-13T11:57:05;26.48;42.46
77839;SHT31;67034;43.226;27.932;2023-10-13T11:59:32;26.65;42.49
77839;SHT31;67034;43.226;27.932;2023-10-13T12:02:01;26.87;42.31
77839;SHT31;67034;43.226;27.932;2023-10-13T12:04:37;26.68;41.23
77839;SHT31;67034;43.226;27.932;2023-10-13T12:07:17;26.39;42.01
77839;SHT31;67034;43.226;27.932;2023-10-13T12:09:46;25.86;42.55
77839;SHT31;67034;43.226;27.932;2023-10-13T12:12:22;25.16;43.90
77839;SHT31;67034;43.226;27.932;2023-10-13T12:14:48;25.07;44.59
77839;SHT31;67034;43.226;27.932;2023-10-13T12:17:21;25.20;44.79
77839;SHT31;67034;43.226;27.932;2023-10-13T12:19:51;25.27;45.14
77839;SHT31;67034;43.226;27.932;2023-10-13T12:22:17;25.18;45.55
77839;SHT31;67034;43.226;27.932;2023-10-13T12:24:51;24.70;46.89
77839;SHT31;67034;43.226;27.932;2023-10-13T12:27:18;24.70;47.33
77839;SHT31;67034;43.226;27.932;2023-10-13T12:29:46;24.94;47.03
77839;SHT31;67034;43.226;27.932;2023-10-13T12:32:12;24.91;47.34
77839;SHT31;67034;43.226;27.932;2023-10-13T12:34:39;24.70;48.20
77839;SHT31;67034;43.226;27.932;2023-10-13T12:37:41;24.58;48.90
77839;SHT31;67034;43.226;27.932;2023-10-13T12:40:09;24.59;49.13
77839;SHT31;67034;43.226;27.932;2023-10-13T12:42:54;24.73;49.25
77839;SHT31;67034;43.226;27.932;2023-10-13T12:45:39;24.80;48.90
77839;SHT31;67034;43.226;27.932;2023-10-13T12:48:24;24.90;48.83
77839;SHT31;67034;43.226;27.932;2023-10-13T12:51:08;24.90;48.79
77839;SHT31;67034;43.226;27.932;2023-10-13T12:53:46;24.86;49.14
77839;SHT31;67034;43.226;27.932;2023-10-13T12:56:13;24.83;49.06
77839;SHT31;67034;43.226;27.932;2023-10-13T12:58:39;24.72;49.33
77839;SHT31;67034;43.226;27.932;2023-10-13T13:01:06;24.63;49.78
77839;SHT31;67034;43.226;27.932;2023-10-13T13:03:31;24.41;50.33
77839;SHT31;67034;43.226;27.932;2023-10-13T13:05:58;24.20;50.95
77839;SHT31;67034;43.226;27.932;2023-10-13T13:08:23;23.73;52.16
77839;SHT31;67034;43.226;27.932;2023-10-13T13:10:50;23.54;52.74
77839;SHT31;67034;43.226;27.932;2023-10-13T13:13:15;23.62;53.21
77839;SHT31;67034;43.226;27.932;2023-10-13T13:15:42;23.78;53.23
77839;SHT31;67034;43.226;27.932;2023-10-13T13:18:09;24.01;52.96
77839;SHT31;67034;43.226;27.932;2023-10-13T13:20:38;24.26;52.18
77839;SHT31;67034;43.226;27.932;2023-10-13T13:23:18;24.36;51.63
77839;SHT31;67034;43.226;27.932;2023-10-13T13:25:45;24.43;51.49
77839;SHT31;67034;43.226;27.932;2023-10-13T13:28:11;24.38;51.62
77839;SHT31;67034;43.226;27.932;2023-10-13T13:30:36;24.35;51.76
77839;SHT31;67034;43.226;27.932;2023-10-13T13:33:03;24.22;51.81
77839;SHT31;67034;43.226;27.932;2023-10-13T13:35:37;24.08;52.08
77839;SHT31;67034;43.226;27.932;2023-10-13T13:38:03;24.05;52.14
77839;SHT31;67034;43.226;27.932;2023-10-13T13:40:37;23.94;52.36
77839;SHT31;67034;43.226;27.932;2023-10-13T13:43:03;23.60;52.99
77839;SHT31;67034;43.226;27.932;2023-10-13T13:45:28;23.29;53.94
77839;SHT31;67034;43.226;27.932;2023-10-13T13:47:54;23.04;54.54
77839;SHT31;67034;43.226;27.932;2023-10-13T13:50:21;22.96;54.88
77839;SHT31;67034;43.226;27.932;2023-10-13T13:52:52;23.01;55.03
77839;SHT31;67034;43.226;27.932;2023-10-13T13:55:21;23.08;54.72
77839;SHT31;67034;43.226;27.932;2023-10-13T13:57:47;23.18;54.93
77839;SHT31;67034;43.226;27.932;2023-10-13T14:00:16;23.29;54.72
77839;SHT31;67034;43.226;27.932;2023-10-13T14:02:44;23.39;54.47
77839;SHT31;67034;43.226;27.932;2023-10-13T14:05:13;23.39;54.21
77839;SHT31;67034;43.226;27.932;2023-10-13T14:07:41;23.39;54.53
77839;SHT31;67034;43.226;27.932;2023-10-13T14:10:09;23.19;54.45
77839;SHT31;67034;43.226;27.932;2023-10-13T14:12:42;23.06;55.14
77839;SHT31;67034;43.226;27.932;2023-10-13T14:15:08;23.04;55.19
77839;SHT31;67034;43.226;27.932;2023-10-13T14:17:45;23.11;55.71
77839;SHT31;67034;43.226;27.932;2023-10-13T14:20:13;23.18;55.94
77839;SHT31;67034;43.226;27.932;2023-10-13T14:22:46;23.27;56.11
77839;SHT31;67034;43.226;27.932;2023-10-13T14:25:14;23.27;56.34
77839;SHT31;67034;43.226;27.932;2023-10-13T14:27:40;23.23;56.56
77839;SHT31;67034;43.226;27.932;2023-10-13T14:30:07;23.23;56.79
77839;SHT31;67034;43.226;27.932;2023-10-13T14:32:33;23.23;57.04
77839;SHT31;67034;43.226;27.932;2023-10-13T14:35:06;23.20;56.91
77839;SHT31;67034;43.226;27.932;2023-10-13T14:37:40;23.22;56.91
77839;SHT31;67034;43.226;27.932;2023-10-13T14:40:07;23.23;56.96
77839;SHT31;67034;43.226;27.932;2023-10-13T14:42:39;23.25;57.24
77839;SHT31;67034;43.226;27.932;2023-10-13T14:45:08;23.26;57.31
77839;SHT31;67034;43.226;27.932;2023-10-13T14:47:38;22.94;58.16
77839;SHT31;67034;43.226;27.932;2023-10-13T14:50:05;22.72;58.80
77839;SHT31;67034;43.226;27.932;2023-10-13T14:52:32;22.50;59.58
77839;SHT31;67034;43.226;27.932;2023-10-13T14:54:57;22.41;59.85
77839;SHT31;67034;43.226;27.932;2023-10-13T14:57:23;22.21;60.25
77839;SHT31;67034;43.226;27.932;2023-10-13T14:59:54;22.19;60.65
77839;SHT31;67034;43.226;27.932;2023-10-13T15:02:20;22.19;60.78
77839;SHT31;67034;43.226;27.932;2023-10-13T15:04:47;22.17;60.89
77839;SHT31;67034;43.226;27.932;2023-10-13T15:07:14;22.23;60.75
77839;SHT31;67034;43.226;27.932;2023-10-13T15:09:43;22.36;60.53
77839;SHT31;67034;43.226;27.932;2023-10-13T15:12:09;22.36;60.54
77839;SHT31;67034;43.226;27.932;2023-10-13T15:14:36;22.16;61.04
77839;SHT31;67034;43.226;27.932;2023-10-13T15:17:03;22.10;61.41
77839;SHT31;67034;43.226;27.932;2023-10-13T15:19:31;22.19;61.14
77839;SHT31;67034;43.226;27.932;2023-10-13T15:22:02;22.32;60.86
77839;SHT31;67034;43.226;27.932;2023-10-13T15:24:27;22.35;60.71
77839;SHT31;67034;43.226;27.932;2023-10-13T15:26:53;22.35;60.72
77839;SHT31;67034;43.226;27.932;2023-10-13T15:29:27;22.40;60.66
77839;SHT31;67034;43.226;27.932;2023-10-13T15:32:01;22.14;61.06
77839;SHT31;67034;43.226;27.932;2023-10-13T15:34:28;22.05;61.36
77839;SHT31;67034;43.226;27.932;2023-10-13T15:36:54;22.14;61.29
77839;SHT31;67034;43.226;27.932;2023-10-13T15:39:21;22.19;61.09
77839;SHT31;67034;43.226;27.932;2023-10-13T15:41:50;22.20;61.03
77839;SHT31;67034;43.226;27.932;2023-10-13T15:44:19;22.23;60.91
77839;SHT31;67034;43.226;27.932;2023-10-13T15:46:46;22.03;61.14